コペンハーゲン の空港の天気 - METARとTAF

コペンハーゲン国際空港 ( EKCH / CPH ) - デンマーク コペンハーゲン
飛行場実況気象(Metar)
観測時間12/04 02:20 CET (12/04 01:20 UTC)
風向・風速南南東 8m/s
視程10km以上
天気現象
全天を覆う雲 雲底高度 460m
気温3℃
湿度81%
気圧997hPa
METAREKCH 040120Z AUTO 15016KT 9999 OVC015/// 03/00 Q0997 TEMPO 15018G28KT BKN015
過去の天気等 Google飛行場航空写真 Wunderground天気予報

過去48時間のMETAR

飛行場予報(TAF)
発表時間: 12/04 00:55 CET (12/03 23:55 UTC)
予報対象時間: 4日1時 CET ~ 5日1時 CET
風向・風速南南東 8m/s
視程10km以上
全天の8割程度の雲 雲底高度 460m
4日1時 CET ~ 4日3時 CET に一時的に
風向・風速南南東 9m/s 瞬間風速 14m/s
全天の8割程度の雲 雲底高度 370m
4日3時 CET ~ 4日14時 CET に一時的に
風向・風速南東 10m/s 瞬間風速 15m/s
TAF AMD EKCH 032355Z 0400/0424 15015KT 9999 BKN015
TEMPO 0400/0402 15018G28KT BKN012
TEMPO 0402/0413 14020G30KT